createdAt,value
2022-11-09T00:04:52.854Z,5.48
2022-11-09T00:14:54.709Z,5.48
2022-11-09T00:24:56.789Z,5.48
2022-11-09T00:34:58.810Z,5.32
2022-11-09T00:45:02.492Z,5.21
2022-11-09T00:55:05.123Z,5.16
2022-11-09T01:05:07.748Z,5.05
2022-11-09T01:15:10.289Z,5.08
2022-11-09T01:25:12.288Z,5.16
2022-11-09T01:35:14.420Z,5.17
2022-11-09T01:45:21.617Z,5.01
2022-11-09T01:55:25.066Z,4.95
2022-11-09T02:05:30.087Z,5.04
2022-11-09T02:27:09.317Z,5.10
2022-11-09T02:37:12.817Z,4.99
2022-11-09T02:47:15.342Z,4.98
2022-11-09T02:57:17.668Z,4.99
2022-11-09T03:07:19.868Z,4.90
2022-11-09T03:17:22.222Z,4.87
2022-11-09T03:27:26.129Z,4.88
2022-11-09T03:37:28.232Z,4.78
2022-11-09T03:47:30.359Z,4.86
2022-11-09T03:57:32.361Z,4.99
2022-11-09T04:07:34.297Z,5.02
2022-11-09T04:17:36.262Z,4.81
2022-11-09T04:27:38.145Z,4.73
2022-11-09T04:37:40.148Z,4.74
2022-11-09T04:47:42.151Z,4.78
2022-11-09T04:57:44.323Z,4.78
2022-11-09T05:07:46.560Z,4.87
2022-11-09T05:17:48.464Z,4.82
2022-11-09T05:27:50.409Z,4.86
2022-11-09T05:37:52.467Z,4.92
2022-11-09T05:47:54.321Z,4.86
2022-11-09T05:57:56.818Z,4.84
2022-11-09T06:08:04.633Z,5.07
2022-11-09T06:18:06.990Z,5.34
2022-11-09T06:28:09.389Z,5.61
2022-11-09T06:38:11.856Z,5.91
2022-11-09T06:48:14.331Z,5.94
2022-11-09T06:58:16.746Z,6.09
2022-11-09T07:08:19.580Z,6.40
2022-11-09T07:18:21.561Z,6.78
2022-11-09T07:28:23.472Z,7.35
2022-11-09T07:38:25.711Z,7.89
2022-11-09T07:48:27.617Z,8.23
2022-11-09T07:58:30.471Z,8.68
2022-11-09T08:08:32.414Z,9.06
2022-11-09T08:18:34.335Z,9.31
2022-11-09T08:28:36.283Z,9.76
2022-11-09T08:38:39.090Z,10.18
2022-11-09T08:48:41.056Z,10.59
2022-11-09T08:58:42.895Z,11.00
2022-11-09T09:08:44.929Z,11.33
2022-11-09T09:18:48.541Z,11.41
2022-11-09T09:28:51.623Z,11.72
2022-11-09T09:38:54.866Z,12.24
2022-11-09T09:49:09.747Z,12.46
2022-11-09T09:59:24.548Z,12.57
2022-11-09T10:09:51.524Z,12.94
2022-11-09T10:20:01.456Z,13.13
2022-11-09T10:30:15.375Z,13.19
2022-11-09T10:40:23.244Z,13.57
2022-11-09T10:50:52.865Z,14.00
2022-11-09T11:01:38.630Z,14.31
2022-11-09T11:12:20.442Z,14.38
2022-11-09T11:22:41.306Z,14.31
2022-11-09T11:33:03.119Z,14.25
2022-11-09T11:43:48.348Z,14.18
2022-11-09T11:54:39.387Z,14.19
2022-11-09T12:05:36.797Z,14.02
2022-11-09T12:16:07.818Z,13.77
2022-11-09T12:26:41.088Z,13.49
2022-11-09T12:37:03.270Z,13.33
2022-11-09T12:47:30.871Z,13.27
2022-11-09T12:57:51.886Z,13.07
2022-11-09T13:08:29.359Z,12.74
2022-11-09T13:18:52.482Z,12.32
2022-11-09T13:29:12.801Z,12.23
2022-11-09T13:39:39.113Z,12.16
2022-11-09T13:49:59.885Z,12.01
2022-11-09T14:00:23.861Z,11.92
2022-11-09T14:11:00.178Z,11.73
2022-11-09T14:21:47.674Z,11.44
2022-11-09T14:32:34.139Z,11.21
2022-11-09T14:43:00.322Z,10.94
2022-11-09T14:53:35.519Z,10.80
2022-11-09T15:04:12.713Z,10.54
2022-11-09T15:14:35.656Z,10.26
2022-11-09T15:24:56.146Z,10.03
2022-11-09T15:35:18.529Z,9.65
2022-11-09T15:45:39.954Z,9.26
2022-11-09T15:56:01.468Z,9.03
2022-11-09T16:06:24.918Z,8.97
2022-11-09T16:16:45.221Z,8.83
2022-11-09T16:27:12.759Z,8.53
2022-11-09T16:37:44.855Z,8.08
2022-11-09T16:48:11.823Z,7.81
2022-11-09T16:58:32.472Z,7.84
2022-11-09T17:08:57.125Z,7.88
2022-11-09T17:19:17.727Z,7.61
2022-11-09T17:29:39.251Z,7.33
2022-11-09T17:40:00.101Z,7.23
2022-11-09T17:50:21.625Z,7.16
2022-11-09T18:00:42.945Z,7.13
2022-11-09T18:11:03.467Z,7.08
2022-11-09T18:21:25.644Z,6.99
2022-11-09T18:31:46.748Z,7.01
2022-11-09T18:42:10.430Z,7.08
2022-11-09T18:52:33.449Z,6.94
2022-11-09T19:02:54.443Z,6.85
2022-11-09T19:13:15.393Z,6.77
2022-11-09T19:23:36.350Z,6.61
2022-11-09T19:33:58.017Z,6.41
2022-11-09T19:44:19.006Z,6.19
2022-11-09T19:54:47.331Z,6.02
2022-11-09T20:05:09.482Z,5.93
2022-11-09T20:15:32.064Z,5.95
2022-11-09T20:25:53.405Z,5.93
2022-11-09T20:36:15.218Z,5.86
2022-11-09T20:46:36.921Z,5.96
2022-11-09T20:56:57.847Z,6.02
2022-11-09T21:07:18.682Z,6.06
2022-11-09T21:17:38.987Z,6.00
2022-11-09T21:28:18.411Z,6.11
2022-11-09T21:38:39.641Z,6.20
2022-11-09T21:49:00.021Z,6.10
2022-11-09T21:59:20.931Z,6.08
2022-11-09T22:10:08.276Z,6.06
2022-11-09T22:20:41.310Z,5.97
2022-11-09T22:31:03.460Z,5.74
2022-11-09T22:41:24.758Z,5.61
2022-11-09T22:51:45.347Z,5.47
2022-11-09T23:02:05.758Z,5.33
2022-11-09T23:12:26.611Z,5.12
2022-11-09T23:22:47.924Z,5.01
2022-11-09T23:33:08.461Z,4.98
2022-11-09T23:43:29.634Z,4.93
2022-11-09T23:53:49.980Z,4.64
